Time;durP1;ratioP1;P1;durP2;ratioP2;P2;SDS_P1;SDS_P2;PMS_P1;PMS_P2;Temp;Humidity;BMP_temperature;BMP_pressure;BME280_temperature;BME280_humidity;BME280_pressure;Samples;Min_cycle;Max_cycle;Signal;HPM_P1;HPM_P2
2022/01/04 00:01:15;;;;;;;6.88;2.83;;;7.60;99.90;;;;;;5060845;28;20043;-88
2022/01/04 00:03:41;;;;;;;12.65;3.40;;;7.70;99.90;;;;;;5060773;28;20493;-87
2022/01/04 00:06:07;;;;;;;4.75;1.67;;;7.70;99.90;;;;;;5060703;28;20078;-88
2022/01/04 00:08:43;;;;;;;2.65;1.73;;;7.70;99.90;;;;;;5080885;28;20035;-88
2022/01/04 00:11:20;;;;;;;0.30;0.30;;;7.70;99.90;;;;;;5091759;28;20046;-88
2022/01/04 00:13:46;;;;;;;6.70;2.17;;;7.60;99.90;;;;;;5067673;28;20385;-88
2022/01/04 00:16:12;;;;;;;7.40;2.75;;;7.60;99.90;;;;;;5063471;28;20044;-88
2022/01/04 00:18:40;;;;;;;7.90;2.20;;;7.60;99.90;;;;;;5081082;28;20032;-88
2022/01/04 00:21:24;;;;;;;5.82;2.72;;;7.60;99.90;;;;;;5084707;28;20115;-87
2022/01/04 00:23:49;;;;;;;8.75;1.63;;;7.60;99.90;;;;;;5071389;28;20027;-88
2022/01/04 00:26:20;;;;;;;7.30;1.95;;;7.60;99.90;;;;;;5061260;28;20040;-88
2022/01/04 00:28:46;;;;;;;8.40;1.70;;;7.60;99.90;;;;;;5077478;28;20047;-87
2022/01/04 00:31:11;;;;;;;8.93;1.60;;;7.60;99.90;;;;;;5068455;28;20036;-87
2022/01/04 00:34:00;;;;;;;3.20;1.58;;;7.60;99.90;;;;;;5087875;28;20032;-87
2022/01/04 00:36:25;;;;;;;2.05;1.25;;;7.60;99.90;;;;;;5076627;28;20040;-87
2022/01/04 00:38:51;;;;;;;9.88;3.10;;;7.60;99.90;;;;;;5060552;28;20504;-87
2022/01/04 00:41:16;;;;;;;4.65;2.20;;;7.60;99.90;;;;;;5078968;28;20259;-87
2022/01/04 00:43:45;;;;;;;2.95;1.27;;;7.60;99.90;;;;;;5075972;28;20538;-87
2022/01/04 00:46:16;;;;;;;7.95;1.63;;;7.70;99.90;;;;;;5063243;28;20123;-88
2022/01/04 00:51:30;;;;;;;4.43;1.43;;;7.60;99.90;;;;;;5096825;28;20401;-88
2022/01/04 00:53:59;;;;;;;1.70;1.60;;;7.60;99.90;;;;;;5080045;28;20120;-88
2022/01/04 00:56:31;;;;;;;1.02;0.85;;;7.60;99.90;;;;;;5085917;28;20504;-88
2022/01/04 00:58:57;;;;;;;2.13;0.95;;;7.60;99.90;;;;;;5075170;28;20119;-87
2022/01/04 01:01:23;;;;;;;13.07;2.60;;;7.80;99.90;;;;;;5057877;28;20036;-88
2022/01/04 01:03:50;;;;;;;2.53;1.42;;;7.60;99.90;;;;;;5070437;28;20046;-88
2022/01/04 01:06:15;;;;;;;4.63;2.45;;;7.60;99.90;;;;;;5052502;28;20119;-88
2022/01/04 01:08:46;;;;;;;5.60;2.33;;;7.60;99.90;;;;;;5075409;28;20177;-87
2022/01/04 01:11:12;;;;;;;16.75;3.78;;;7.50;99.90;;;;;;5064409;28;20496;-88
2022/01/04 01:13:51;;;;;;;2.05;1.13;;;7.50;99.90;;;;;;5066444;28;20110;-88
2022/01/04 01:16:23;;;;;;;4.22;2.25;;;7.60;99.90;;;;;;5075091;28;20400;-87
2022/01/04 01:18:48;;;;;;;8.85;1.08;;;8.20;99.90;;;;;;5059549;28;20439;-87
2022/01/04 01:21:18;;;;;;;13.85;3.67;;;7.50;99.90;;;;;;5059621;28;20127;-88
2022/01/04 01:23:44;;;;;;;2.42;1.38;;;7.50;99.90;;;;;;5078731;28;20046;-88
2022/01/04 01:26:09;;;;;;;4.00;1.83;;;8.00;99.90;;;;;;5079025;28;20595;-88
2022/01/04 01:28:36;;;;;;;5.10;1.30;;;7.40;99.90;;;;;;5079846;28;20031;-87
2022/01/04 01:31:10;;;;;;;0.95;0.70;;;7.50;99.90;;;;;;5095814;28;20044;-88
2022/01/04 01:33:35;;;;;;;3.70;1.45;;;7.50;99.90;;;;;;5059846;28;20169;-88
2022/01/04 01:36:03;;;;;;;18.73;1.55;;;7.50;99.90;;;;;;5059272;28;20115;-89
2022/01/04 01:38:28;;;;;;;3.25;2.00;;;7.50;99.90;;;;;;5059289;28;20047;-87
2022/01/04 01:40:54;;;;;;;5.30;2.28;;;7.50;99.90;;;;;;5059269;28;20036;-88
2022/01/04 01:43:24;;;;;;;3.65;2.13;;;7.40;99.90;;;;;;5059739;28;20082;-88
2022/01/04 01:45:50;;;;;;;7.20;2.35;;;7.50;99.90;;;;;;5059426;28;20036;-88
2022/01/04 01:48:16;;;;;;;1.40;0.85;;;7.50;99.90;;;;;;5058850;28;20044;-87
2022/01/04 01:50:42;;;;;;;1.50;0.93;;;7.50;99.90;;;;;;5059579;28;20044;-88
2022/01/04 01:53:08;;;;;;;11.88;4.13;;;7.50;99.90;;;;;;5058832;28;20032;-88
2022/01/04 01:55:34;;;;;;;0.75;0.60;;;7.80;99.90;;;;;;5059210;28;20040;-88
2022/01/04 01:58:00;;;;;;;11.80;1.90;;;8.10;99.90;;;;;;5058542;28;20083;-88
2022/01/04 02:00:28;;;;;;;9.48;3.22;;;8.10;99.90;;;;;;5059069;28;20073;-88
2022/01/04 02:02:54;;;;;;;1.52;0.98;;;7.80;99.90;;;;;;5075581;28;20100;-87
2022/01/04 02:05:20;;;;;;;4.85;2.40;;;7.80;99.90;;;;;;5059074;28;20036;-87
2022/01/04 02:07:46;;;;;;;5.03;1.90;;;7.60;99.90;;;;;;5058461;28;20106;-87
2022/01/04 02:10:12;;;;;;;6.00;2.88;;;7.60;99.90;;;;;;5058818;28;20069;-87
2022/01/04 02:12:46;;;;;;;14.52;3.00;;;7.60;99.90;;;;;;5058617;28;20038;-88
2022/01/04 02:15:15;;;;;;;3.80;1.92;;;7.60;99.90;;;;;;5060687;28;20027;-89
2022/01/04 02:17:51;;;;;;;6.80;3.45;;;7.60;99.90;;;;;;5068221;27;20039;-87
2022/01/04 02:20:17;;;;;;;;;;;7.60;99.90;;;;;;5094518;27;20487;-87
2022/01/04 02:22:43;;;;;;;2.75;1.83;;;7.60;99.90;;;;;;5085420;27;20325;-87
2022/01/04 02:25:10;;;;;;;4.38;2.13;;;7.60;99.90;;;;;;5064741;28;20489;-88
2022/01/04 02:27:38;;;;;;;4.18;2.08;;;8.30;99.90;;;;;;5077410;27;20195;-88
2022/01/04 02:30:06;;;;;;;0.73;0.40;;;7.70;99.90;;;;;;5076226;28;20042;-88
2022/01/04 02:32:32;;;;;;;10.88;3.80;;;7.70;99.90;;;;;;5067366;28;20115;-88
2022/01/04 02:34:57;;;;;;;6.55;1.80;;;7.70;99.90;;;;;;5069981;28;20108;-88
2022/01/04 02:40:47;;;;;;;7.35;2.50;;;7.70;99.90;;;;;;5075201;28;20040;-88
2022/01/04 02:43:12;;;;;;;6.18;3.65;;;7.70;99.90;;;;;;5080357;28;20042;-87
2022/01/04 02:45:38;;;;;;;4.25;2.55;;;7.70;99.90;;;;;;5070393;28;20067;-87
2022/01/04 02:48:04;;;;;;;20.85;5.28;;;7.70;99.90;;;;;;5086041;27;20114;-87
2022/01/04 02:50:29;;;;;;;9.18;4.13;;;7.70;99.90;;;;;;5072097;27;20127;-88
2022/01/04 02:53:12;;;;;;;15.02;3.47;;;7.80;99.90;;;;;;5084089;28;20059;-88
2022/01/04 02:55:38;;;;;;;4.43;3.53;;;7.70;99.90;;;;;;5077635;27;20122;-88
2022/01/04 02:58:04;;;;;;;24.35;3.63;;;7.90;99.90;;;;;;5102282;27;20130;-88
2022/01/04 03:00:29;;;;;;;2.78;1.58;;;7.80;99.90;;;;;;5102558;27;20491;-88
2022/01/04 03:02:55;;;;;;;4.03;2.38;;;7.80;99.90;;;;;;5081467;28;20073;-87
2022/01/04 03:05:21;;;;;;;1.13;0.90;;;7.80;99.90;;;;;;5082161;28;20077;-88
2022/01/04 03:07:46;;;;;;;4.93;3.20;;;7.80;99.90;;;;;;5083356;27;20467;-88
2022/01/04 03:10:12;;;;;;;6.18;2.20;;;7.70;99.90;;;;;;5091019;28;20112;-88
2022/01/04 03:12:47;;;;;;;3.72;2.38;;;7.80;99.90;;;;;;5085291;28;20100;-87
2022/01/04 03:15:14;;;;;;;7.13;2.92;;;7.80;99.90;;;;;;5096987;27;20039;-88
2022/01/04 03:17:40;;;;;;;10.30;4.55;;;7.80;99.90;;;;;;5091624;28;20124;-88
2022/01/04 03:20:07;;;;;;;2.30;1.45;;;7.80;99.90;;;;;;5081893;28;20046;-88
2022/01/04 03:22:33;;;;;;;6.22;3.67;;;7.90;99.90;;;;;;5067505;28;20089;-88
2022/01/04 03:24:59;;;;;;;6.55;3.03;;;7.90;99.90;;;;;;5074456;28;20115;-88
2022/01/04 03:27:24;;;;;;;8.75;3.40;;;7.90;99.90;;;;;;5098318;28;20564;-88
2022/01/04 03:29:50;;;;;;;8.05;2.95;;;7.90;99.90;;;;;;5081898;28;20043;-88
2022/01/04 03:32:16;;;;;;;7.40;2.38;;;7.90;99.90;;;;;;5081548;28;20031;-88
2022/01/04 03:34:41;;;;;;;4.10;2.25;;;8.10;99.90;;;;;;5081731;28;20084;-88
2022/01/04 03:37:07;;;;;;;6.72;2.53;;;7.90;99.90;;;;;;5089196;28;20089;-88
2022/01/04 03:39:32;;;;;;;3.38;1.70;;;7.90;99.90;;;;;;5061973;28;20039;-88
2022/01/04 03:41:58;;;;;;;5.68;2.40;;;7.90;99.90;;;;;;5061306;28;20040;-88
2022/01/04 03:44:23;;;;;;;9.32;3.25;;;7.90;99.90;;;;;;5061742;28;20036;-88
2022/01/04 03:46:51;;;;;;;3.55;1.15;;;7.90;99.90;;;;;;5077554;28;20044;-88
2022/01/04 03:49:17;;;;;;;3.70;2.38;;;7.90;99.90;;;;;;5061473;28;20040;-88
2022/01/04 03:51:43;;;;;;;1.65;0.98;;;7.90;99.90;;;;;;5061175;28;20047;-88
2022/01/04 03:54:09;;;;;;;5.47;1.65;;;7.90;99.90;;;;;;5075288;28;20516;-88
2022/01/04 03:56:35;;;;;;;6.60;3.50;;;7.90;99.90;;;;;;5081033;28;20040;-89
2022/01/04 03:59:01;;;;;;;3.42;2.13;;;7.90;99.90;;;;;;5081267;28;20043;-88
2022/01/04 04:01:27;;;;;;;2.83;1.73;;;7.90;99.90;;;;;;5081055;28;20508;-88
2022/01/04 04:04:08;;;;;;;3.25;1.90;;;8.00;99.90;;;;;;5097941;28;20047;-88
2022/01/04 04:06:34;;;;;;;14.13;2.97;;;7.90;99.90;;;;;;5078261;28;20044;-88
2022/01/04 04:09:00;;;;;;;2.35;1.67;;;7.90;99.90;;;;;;5098132;28;20304;-89
2022/01/04 04:11:26;;;;;;;8.93;4.40;;;7.90;99.90;;;;;;5091539;28;20051;-88
2022/01/04 04:13:52;;;;;;;1.95;1.20;;;7.90;99.90;;;;;;5077571;28;20043;-88
2022/01/04 04:16:18;;;;;;;2.55;1.40;;;8.00;99.90;;;;;;5060496;28;20054;-89
2022/01/04 04:18:44;;;;;;;1.42;0.98;;;7.90;99.90;;;;;;5060980;28;20428;-88
2022/01/04 04:21:10;;;;;;;10.15;2.63;;;8.00;99.90;;;;;;5060924;28;20433;-88
2022/01/04 04:23:36;;;;;;;7.05;2.72;;;7.90;99.90;;;;;;5060953;28;20040;-88
2022/01/04 04:26:02;;;;;;;1.92;1.20;;;7.90;99.90;;;;;;5060315;28;20062;-89
2022/01/04 04:28:28;;;;;;;4.00;2.95;;;7.90;99.90;;;;;;5060699;28;20457;-88
2022/01/04 04:30:55;;;;;;;9.48;2.95;;;7.90;99.90;;;;;;5060630;28;20067;-87
2022/01/04 04:33:22;;;;;;;14.23;4.13;;;7.90;99.90;;;;;;5060182;28;20412;-87
2022/01/04 04:35:47;;;;;;;7.40;3.25;;;7.80;99.90;;;;;;5060346;28;20071;-88
2022/01/04 04:38:13;;;;;;;2.33;1.83;;;7.80;99.90;;;;;;5076577;28;20074;-88
2022/01/04 04:40:38;;;;;;;2.88;1.40;;;7.90;99.90;;;;;;5060394;28;20051;-88
2022/01/04 04:43:05;;;;;;;5.05;2.60;;;7.90;99.90;;;;;;5060652;28;20055;-88
2022/01/04 04:45:30;;;;;;;7.85;3.72;;;7.80;99.90;;;;;;5060564;28;20192;-88
2022/01/04 04:47:56;;;;;;;2.85;1.27;;;7.80;99.90;;;;;;5059835;28;20081;-88
2022/01/04 04:50:22;;;;;;;4.53;1.98;;;7.80;99.90;;;;;;5077030;28;20051;-88
2022/01/04 04:52:47;;;;;;;3.35;1.92;;;7.80;99.90;;;;;;5060310;28;20139;-88
2022/01/04 04:55:13;;;;;;;7.80;3.55;;;7.80;99.90;;;;;;5060344;28;20028;-87
2022/01/04 04:57:39;;;;;;;7.03;2.65;;;7.80;99.90;;;;;;5059745;28;20089;-88
2022/01/04 05:00:08;;;;;;;2.08;1.23;;;7.80;99.90;;;;;;5060011;28;20036;-87
2022/01/04 05:02:34;;;;;;;6.50;3.15;;;7.80;99.90;;;;;;5081110;28;20042;-88
2022/01/04 05:04:59;;;;;;;6.88;3.10;;;7.90;99.90;;;;;;5058431;28;20114;-89
2022/01/04 05:07:26;;;;;;;11.30;4.47;;;7.90;99.90;;;;;;5075549;28;20055;-89
2022/01/04 05:09:52;;;;;;;17.10;2.85;;;7.80;99.90;;;;;;5059319;28;20066;-89
2022/01/04 05:12:17;;;;;;;4.47;2.53;;;7.80;99.90;;;;;;5059329;28;20078;-88
2022/01/04 05:14:46;;;;;;;5.45;2.60;;;7.80;99.90;;;;;;5063561;28;20893;-88
2022/01/04 05:17:13;;;;;;;4.22;2.20;;;7.80;99.90;;;;;;5058602;28;20089;-88
2022/01/04 05:19:38;;;;;;;4.65;2.92;;;7.80;99.90;;;;;;5062625;28;20397;-88
2022/01/04 05:22:04;;;;;;;7.63;3.25;;;7.80;99.90;;;;;;5078479;28;20065;-88
2022/01/04 05:24:30;;;;;;;6.78;1.80;;;7.80;99.90;;;;;;5096148;28;20085;-88
2022/01/04 05:26:55;;;;;;;5.97;2.95;;;7.80;99.90;;;;;;5089334;28;20118;-88
2022/01/04 05:29:21;;;;;;;5.95;2.47;;;7.80;99.90;;;;;;5075558;28;20075;-88
2022/01/04 05:31:46;;;;;;;7.32;3.05;;;7.80;99.90;;;;;;5058463;28;20524;-88
2022/01/04 05:34:12;;;;;;;11.27;4.20;;;7.80;99.90;;;;;;5058745;28;20043;-88
2022/01/04 05:36:37;;;;;;;18.05;3.13;;;8.10;99.90;;;;;;5058760;28;20598;-88
2022/01/04 05:39:03;;;;;;;7.43;2.83;;;7.80;99.90;;;;;;5075414;28;20036;-88
2022/01/04 05:41:29;;;;;;;1.73;1.02;;;7.80;99.90;;;;;;5070805;28;20055;-88
2022/01/04 05:43:54;;;;;;;4.20;2.22;;;7.80;99.90;;;;;;5062482;28;20058;-88
2022/01/04 05:46:20;;;;;;;2.70;1.75;;;7.80;99.90;;;;;;5076246;28;20043;-88
2022/01/04 05:48:47;;;;;;;4.03;1.92;;;7.80;99.90;;;;;;5078349;28;20043;-88
2022/01/04 05:51:12;;;;;;;5.05;1.83;;;7.70;99.90;;;;;;5078250;28;20036;-88
2022/01/04 05:53:38;;;;;;;3.85;2.75;;;7.80;99.90;;;;;;5073379;28;20042;-88
2022/01/04 05:56:04;;;;;;;6.38;3.25;;;7.80;99.90;;;;;;5077973;28;20035;-88
2022/01/04 05:58:29;;;;;;;5.45;2.90;;;7.80;99.90;;;;;;5075351;28;21775;-88
2022/01/04 06:00:55;;;;;;;8.05;3.60;;;7.80;99.90;;;;;;5068635;28;20484;-88
2022/01/04 06:03:21;;;;;;;5.85;1.98;;;7.70;99.90;;;;;;5078045;28;20043;-87
2022/01/04 06:05:46;;;;;;;7.80;3.60;;;7.70;99.90;;;;;;5073033;28;20039;-88
2022/01/04 06:08:12;;;;;;;26.77;4.18;;;7.70;99.90;;;;;;5061891;28;20470;-88
2022/01/04 06:10:40;;;;;;;6.68;3.72;;;7.70;99.90;;;;;;5073538;28;20063;-87
2022/01/04 06:15:32;;;;;;;3.58;1.08;;;7.70;99.90;;;;;;5074338;28;20075;-89
2022/01/04 06:17:58;;;;;;;6.47;3.85;;;7.70;99.90;;;;;;5073148;28;20039;-88
2022/01/04 06:20:24;;;;;;;7.75;3.70;;;7.70;99.90;;;;;;5057549;28;20031;-89
2022/01/04 06:22:51;;;;;;;11.45;3.38;;;7.70;99.90;;;;;;5057803;28;20063;-88
2022/01/04 06:25:19;;;;;;;6.20;3.33;;;7.80;99.90;;;;;;5058082;28;20489;-88
2022/01/04 06:27:46;;;;;;;11.85;4.90;;;7.70;99.90;;;;;;5057344;28;20096;-88
2022/01/04 06:30:18;;;;;;;8.10;4.53;;;7.70;99.90;;;;;;5062392;28;20066;-87
2022/01/04 06:32:44;;;;;;;8.45;4.57;;;7.70;99.90;;;;;;5073777;28;20039;-88
2022/01/04 06:35:13;;;;;;;10.05;4.70;;;7.70;99.90;;;;;;5094852;28;20046;-88
2022/01/04 06:37:41;;;;;;;5.95;2.97;;;7.70;99.90;;;;;;5077556;28;20032;-88
2022/01/04 06:40:10;;;;;;;4.00;1.75;;;7.70;99.90;;;;;;5065128;28;20043;-88
2022/01/04 06:42:36;;;;;;;3.58;1.88;;;7.70;99.90;;;;;;5057637;28;20032;-87
2022/01/04 06:45:01;;;;;;;2.85;2.08;;;7.70;99.90;;;;;;5065153;28;20450;-88
2022/01/04 06:47:27;;;;;;;6.90;4.07;;;7.70;99.90;;;;;;5094078;28;20499;-87
2022/01/04 06:49:52;;;;;;;12.90;5.93;;;7.70;99.90;;;;;;5094850;28;20071;-88
2022/01/04 06:52:18;;;;;;;7.63;4.70;;;7.70;99.90;;;;;;5094589;28;20039;-88
2022/01/04 06:54:44;;;;;;;6.57;3.60;;;7.70;99.90;;;;;;5072802;28;20050;-88
2022/01/04 06:57:09;;;;;;;13.88;4.65;;;7.70;99.90;;;;;;5069627;28;20066;-88
2022/01/04 06:59:35;;;;;;;4.18;2.63;;;7.80;99.90;;;;;;5057521;28;20500;-88
2022/01/04 07:02:01;;;;;;;3.20;2.88;;;7.70;99.90;;;;;;5057491;28;20047;-88
2022/01/04 07:04:26;;;;;;;6.35;3.63;;;7.70;99.90;;;;;;5057599;28;20072;-88
2022/01/04 07:06:52;;;;;;;8.52;4.47;;;7.70;99.90;;;;;;5057116;28;20076;-87
2022/01/04 07:09:17;;;;;;;8.32;3.65;;;7.70;99.90;;;;;;5057518;28;20524;-89
2022/01/04 07:11:43;;;;;;;8.68;4.10;;;7.80;99.90;;;;;;5070202;28;20412;-88
2022/01/04 07:14:09;;;;;;;7.78;3.92;;;7.70;99.90;;;;;;5094150;28;20036;-88
2022/01/04 07:16:34;;;;;;;13.20;5.05;;;7.80;99.90;;;;;;5076677;28;20035;-88
2022/01/04 07:19:00;;;;;;;5.60;2.70;;;7.80;99.90;;;;;;5069714;28;20223;-88
2022/01/04 07:21:26;;;;;;;4.90;2.95;;;7.80;99.90;;;;;;5061490;28;20105;-88
2022/01/04 07:23:54;;;;;;;3.35;2.30;;;7.80;99.90;;;;;;5063299;28;20484;-88
2022/01/04 07:26:20;;;;;;;7.38;3.25;;;7.80;99.90;;;;;;5082959;28;20048;-89
2022/01/04 07:28:47;;;;;;;9.88;3.42;;;7.80;99.90;;;;;;5058180;28;20044;-88
2022/01/04 07:31:14;;;;;;;1.40;0.85;;;7.80;99.90;;;;;;5077584;28;20040;-88
2022/01/04 07:33:40;;;;;;;3.75;1.42;;;7.80;99.90;;;;;;5060729;28;20082;-89
2022/01/04 07:36:07;;;;;;;1.30;0.73;;;7.70;99.90;;;;;;5060517;28;20040;-89
2022/01/04 07:38:36;;;;;;;5.28;2.45;;;7.80;99.90;;;;;;5068644;28;20076;-88
2022/01/04 07:41:03;;;;;;;4.22;2.47;;;7.70;99.90;;;;;;5060545;28;20686;-88
2022/01/04 07:43:28;;;;;;;14.98;5.00;;;7.90;99.90;;;;;;5072130;28;20445;-88
2022/01/04 07:45:54;;;;;;;3.42;2.30;;;7.70;99.90;;;;;;5076271;28;20127;-88
2022/01/04 07:48:20;;;;;;;17.55;5.40;;;7.70;99.90;;;;;;5081949;28;20131;-88
2022/01/04 07:50:46;;;;;;;6.20;3.03;;;7.70;99.90;;;;;;5060304;28;20489;-88
2022/01/04 07:53:12;;;;;;;12.05;5.40;;;7.70;99.90;;;;;;5060374;28;20038;-88
2022/01/04 07:55:38;;;;;;;8.32;4.63;;;7.70;99.90;;;;;;5060014;28;20044;-89
2022/01/04 07:58:03;;;;;;;6.82;4.45;;;7.70;99.90;;;;;;5059453;28;20047;-88
2022/01/04 08:00:29;;;;;;;5.65;2.95;;;7.70;99.90;;;;;;5061547;27;20040;-89
2022/01/04 08:02:55;;;;;;;14.77;5.93;;;7.60;99.90;;;;;;5073959;28;20040;-88
2022/01/04 08:05:46;;;;;;;10.98;4.40;;;7.80;99.90;;;;;;5076881;28;20059;-89
2022/01/04 08:08:13;;;;;;;11.85;4.75;;;7.60;99.90;;;;;;5070072;28;20382;-88
2022/01/04 08:10:38;;;;;;;9.32;3.50;;;7.60;99.90;;;;;;5080535;28;20035;-89
2022/01/04 08:13:04;;;;;;;4.90;2.58;;;7.60;99.90;;;;;;5080641;28;20382;-88
2022/01/04 08:15:30;;;;;;;8.60;3.83;;;7.60;99.90;;;;;;5064914;28;20040;-89
2022/01/04 08:17:56;;;;;;;7.60;3.67;;;7.60;99.90;;;;;;5070744;27;20508;-88
2022/01/04 08:20:22;;;;;;;2.30;1.75;;;7.60;99.90;;;;;;5100818;27;20491;-89
2022/01/04 08:22:48;;;;;;;7.07;2.67;;;7.60;99.90;;;;;;5100940;27;20096;-89
2022/01/04 08:25:13;;;;;;;5.45;2.80;;;7.80;99.90;;;;;;5117418;27;20043;-88
2022/01/04 08:27:39;;;;;;;5.25;2.53;;;7.60;99.90;;;;;;5100609;27;20088;-90
2022/01/04 08:30:07;;;;;;;7.90;3.97;;;7.60;99.90;;;;;;5117298;27;20151;-92
2022/01/04 08:32:33;;;;;;;4.38;2.60;;;7.60;99.90;;;;;;5068670;28;20089;-90
2022/01/04 08:34:59;;;;;;;3.70;1.63;;;7.60;99.90;;;;;;5090455;27;20569;-90
2022/01/04 08:37:30;;;;;;;10.75;5.07;;;7.60;99.90;;;;;;5100518;27;20035;-90
2022/01/04 08:39:55;;;;;;;8.50;3.25;;;7.60;99.90;;;;;;5071073;28;20032;-90
2022/01/04 08:42:24;;;;;;;2.97;1.73;;;7.60;99.90;;;;;;5060421;28;20093;-90
2022/01/04 08:44:50;;;;;;;4.35;2.20;;;7.60;99.90;;;;;;5060349;28;20122;-90
2022/01/04 08:47:16;;;;;;;5.35;2.83;;;7.70;99.90;;;;;;5059781;28;20071;-90
2022/01/04 08:49:41;;;;;;;5.50;3.15;;;7.70;99.90;;;;;;5059750;28;20032;-88
2022/01/04 08:52:08;;;;;;;5.63;3.28;;;7.60;99.90;;;;;;5059488;28;20040;-88
2022/01/04 08:54:34;;;;;;;6.55;3.65;;;7.60;99.90;;;;;;5072313;28;20413;-88
2022/01/04 08:57:00;;;;;;;3.53;2.25;;;7.60;99.90;;;;;;5066643;28;20435;-88
2022/01/04 08:59:27;;;;;;;9.30;3.00;;;7.60;99.90;;;;;;5096447;28;20085;-88
2022/01/04 09:01:53;;;;;;;8.68;2.58;;;7.60;99.90;;;;;;5079344;28;20071;-88
2022/01/04 09:04:19;;;;;;;2.90;1.75;;;7.80;99.90;;;;;;5068763;28;20044;-90
2022/01/04 09:06:45;;;;;;;1.73;0.93;;;7.80;99.90;;;;;;5059323;28;20122;-90
2022/01/04 09:09:10;;;;;;;9.32;4.00;;;7.60;99.90;;;;;;5066438;28;20046;-90
2022/01/04 09:11:36;;;;;;;3.40;2.33;;;7.60;99.90;;;;;;5080147;28;20515;-90
2022/01/04 09:19:27;;;;;;;1.88;1.20;;;7.90;99.90;;;;;;5079636;28;20587;-89
2022/01/04 09:21:54;;;;;;;5.47;1.88;;;7.60;99.90;;;;;;5066888;27;20035;-90
2022/01/04 09:24:19;;;;;;;4.25;2.05;;;7.60;99.90;;;;;;5100158;27;20403;-89
2022/01/04 09:26:47;;;;;;;5.70;1.92;;;7.50;99.90;;;;;;5098759;27;20039;-86
2022/01/04 09:29:13;;;;;;;2.35;1.70;;;7.60;99.90;;;;;;5091157;28;20036;-87
2022/01/04 09:31:39;;;;;;;2.00;1.13;;;7.80;99.90;;;;;;5061552;28;20047;-86
2022/01/04 09:34:05;;;;;;;0.90;0.75;;;7.50;99.90;;;;;;5069359;27;20035;-86
2022/01/04 09:36:37;;;;;;;0.70;0.70;;;7.50;99.90;;;;;;5073964;28;20036;-88
2022/01/04 09:39:07;;;;;;;0.63;0.43;;;7.40;99.90;;;;;;5092233;27;20444;-88
2022/01/04 09:41:32;;;;;;;0.30;0.30;;;7.40;99.90;;;;;;5098177;27;20035;-88
2022/01/04 09:43:59;;;;;;;2.17;0.30;;;7.40;99.90;;;;;;5078657;27;20518;-88
2022/01/04 09:46:26;;;;;;;1.20;1.08;;;7.30;99.90;;;;;;5081978;28;20044;-87
2022/01/04 09:48:52;;;;;;;0.50;0.45;;;7.30;99.90;;;;;;5074572;28;20082;-87
2022/01/04 09:51:18;;;;;;;0.50;0.40;;;7.30;99.90;;;;;;5058176;28;20084;-88
2022/01/04 09:53:44;;;;;;;0.90;0.32;;;7.30;99.90;;;;;;5067550;28;20040;-88
2022/01/04 09:56:09;;;;;;;1.27;0.63;;;7.30;99.90;;;;;;5064812;28;20032;-88
2022/01/04 09:58:35;;;;;;;2.92;0.98;;;7.30;99.90;;;;;;5081948;28;20032;-88
2022/01/04 10:01:01;;;;;;;3.50;0.40;;;7.30;99.90;;;;;;5068147;27;20100;-88
2022/01/04 10:03:29;;;;;;;1.00;0.52;;;7.30;99.90;;;;;;5087240;28;20675;-88
2022/01/04 10:06:07;;;;;;;1.48;0.75;;;7.30;99.90;;;;;;5060675;28;20032;-88
2022/01/04 10:08:33;;;;;;;0.30;0.28;;;7.20;99.90;;;;;;5065609;28;20044;-88
2022/01/04 10:11:04;;;;;;;5.65;0.52;;;7.30;99.90;;;;;;5061909;28;20503;-88
2022/01/04 10:13:30;;;;;;;1.00;0.40;;;7.30;99.90;;;;;;5060405;28;20131;-89
2022/01/04 10:16:01;;;;;;;0.47;0.47;;;7.30;99.90;;;;;;5063516;28;20398;-89
2022/01/04 10:18:28;;;;;;;1.20;0.90;;;7.40;99.90;;;;;;5081986;28;20047;-88
2022/01/04 10:21:02;;;;;;;1.23;0.45;;;7.40;99.90;;;;;;5065078;28;20088;-89
2022/01/04 10:23:29;;;;;;;0.30;0.30;;;7.30;99.90;;;;;;5066543;28;20390;-88
2022/01/04 10:26:04;;;;;;;3.03;0.77;;;7.40;99.90;;;;;;5082686;27;20035;-90
2022/01/04 10:28:47;;;;;;;;;;;7.30;99.90;;;;;;5075376;28;20044;-90
2022/01/04 10:31:16;;;;;;;0.82;0.50;;;7.30;99.90;;;;;;5069608;27;19926;-89
2022/01/04 10:33:43;;;;;;;3.88;0.50;;;7.30;99.90;;;;;;5076420;28;20031;-90
2022/01/04 10:36:16;;;;;;;5.80;1.45;;;7.30;99.90;;;;;;5058315;28;20123;-88
2022/01/04 10:38:44;;;;;;;1.70;0.98;;;7.10;99.90;;;;;;5057970;28;20479;-88
2022/01/04 10:41:16;;;;;;;3.45;0.95;;;7.10;99.90;;;;;;5057553;28;20071;-88
2022/01/04 10:43:47;;;;;;;8.27;1.27;;;7.00;99.90;;;;;;5057456;28;20051;-88
2022/01/04 10:46:15;;;;;;;5.10;1.20;;;6.90;99.90;;;;;;5056928;28;20044;-88
2022/01/04 10:48:43;;;;;;;0.40;0.40;;;6.80;99.90;;;;;;5059698;28;20086;-89
2022/01/04 10:51:12;;;;;;;2.17;0.85;;;6.80;99.90;;;;;;5077629;28;20131;-89
2022/01/04 10:54:00;;;;;;;1.17;0.65;;;6.70;99.90;;;;;;5076776;28;20084;-88
2022/01/04 10:56:34;;;;;;;4.43;1.60;;;6.60;99.90;;;;;;5090942;28;20407;-89
2022/01/04 10:59:04;;;;;;;3.50;1.02;;;6.60;99.90;;;;;;5093143;28;20504;-89
2022/01/04 11:01:47;;;;;;;6.55;1.48;;;6.60;99.90;;;;;;5085067;28;20040;-89
2022/01/04 11:04:17;;;;;;;4.35;1.08;;;6.60;99.90;;;;;;5074380;27;20486;-87
2022/01/04 11:06:45;;;;;;;3.33;0.75;;;6.80;99.90;;;;;;5081017;28;20040;-89
2022/01/04 11:09:11;;;;;;;2.53;0.68;;;6.60;99.90;;;;;;5083253;28;20077;-90
2022/01/04 11:11:41;;;;;;;2.22;1.10;;;6.50;99.90;;;;;;5071414;28;20032;-90
2022/01/04 11:14:08;;;;;;;1.75;0.88;;;6.50;99.90;;;;;;5076122;28;20039;-90
2022/01/04 11:16:34;;;;;;;2.17;0.68;;;6.60;99.90;;;;;;5065647;28;20075;-89
2022/01/04 11:19:01;;;;;;;0.57;0.57;;;6.50;99.90;;;;;;5073760;28;20067;-90
2022/01/04 11:21:32;;;;;;;8.98;1.02;;;6.40;99.90;;;;;;5077535;28;20077;-90
2022/01/04 11:24:04;;;;;;;1.05;0.47;;;6.40;99.90;;;;;;5067120;28;20712;-90
2022/01/04 11:26:32;;;;;;;3.30;0.73;;;6.40;99.90;;;;;;5078512;27;20096;-89
2022/01/04 11:28:58;;;;;;;6.10;1.13;;;6.40;99.90;;;;;;5098080;27;20039;-89
2022/01/04 11:31:53;;;;;;;3.20;0.88;;;6.30;99.90;;;;;;5079889;28;20437;-89
2022/01/04 11:34:35;;;;;;;2.13;1.05;;;6.30;99.90;;;;;;5069073;28;20052;-89
2022/01/04 11:37:02;;;;;;;3.90;0.85;;;6.20;99.90;;;;;;5085708;27;20043;-89
2022/01/04 11:39:33;;;;;;;3.63;1.10;;;6.20;99.90;;;;;;5098774;27;20035;-87
2022/01/04 11:42:30;;;;;;;1.30;0.75;;;6.10;99.90;;;;;;5076758;27;20054;-89
2022/01/04 11:44:56;;;;;;;2.30;0.68;;;5.80;99.90;;;;;;5081220;28;20134;-89
2022/01/04 11:47:27;;;;;;;3.80;0.77;;;5.70;99.90;;;;;;5084129;28;20135;-89
2022/01/04 11:50:17;;;;;;;2.13;0.60;;;5.60;99.90;;;;;;5078821;28;20089;-89
2022/01/04 11:52:47;;;;;;;0.68;0.40;;;5.50;99.90;;;;;;5059657;28;20131;-89
2022/01/04 11:55:37;;;;;;;8.20;0.82;;;5.50;99.90;;;;;;5060083;28;20222;-89
2022/01/04 11:58:08;;;;;;;7.15;1.10;;;5.40;99.90;;;;;;5059236;28;20032;-89
2022/01/04 12:00:40;;;;;;;1.48;0.55;;;5.70;99.90;;;;;;5075815;28;20493;-89
2022/01/04 12:03:20;;;;;;;4.32;0.88;;;5.50;99.90;;;;;;5072574;28;20554;-88
2022/01/04 12:06:02;;;;;;;6.13;1.17;;;5.50;99.90;;;;;;5063850;28;20035;-87
2022/01/04 12:08:48;;;;;;;0.30;0.30;;;5.50;99.90;;;;;;5058993;28;20039;-89
2022/01/04 12:11:20;;;;;;;1.85;0.52;;;5.50;99.90;;;;;;5074996;28;20035;-90
2022/01/04 12:13:50;;;;;;;2.63;0.93;;;5.50;99.90;;;;;;5059518;28;20066;-89
2022/01/04 12:16:28;;;;;;;1.45;0.60;;;5.40;99.90;;;;;;5058314;28;20032;-90
2022/01/04 12:18:57;;;;;;;4.88;0.73;;;5.30;99.90;;;;;;5060083;28;20036;-90
2022/01/04 12:21:26;;;;;;;0.30;0.30;;;5.20;99.90;;;;;;5061465;28;20643;-90
2022/01/04 12:23:58;;;;;;;0.40;0.40;;;5.20;99.90;;;;;;5059545;28;20536;-90
2022/01/04 12:26:32;;;;;;;0.77;0.35;;;5.20;99.90;;;;;;5074387;28;20107;-87
2022/01/04 12:28:58;;;;;;;0.73;0.40;;;5.20;99.90;;;;;;5070325;28;20073;-87
2022/01/04 12:31:33;;;;;;;0.47;0.30;;;5.20;99.90;;;;;;5061619;28;20493;-88
2022/01/04 12:34:01;;;;;;;0.50;0.30;;;5.30;99.90;;;;;;5070475;28;20032;-89
2022/01/04 12:36:42;;;;;;;1.48;0.60;;;5.30;99.90;;;;;;5059600;28;20046;-87
2022/01/04 12:39:20;;;;;;;0.30;0.30;;;5.30;99.90;;;;;;5059690;28;20051;-87
2022/01/04 12:41:51;;;;;;;1.60;0.30;;;5.40;99.90;;;;;;5059899;28;20117;-88
2022/01/04 12:44:25;;;;;;;1.17;0.40;;;5.30;99.90;;;;;;5069464;28;20070;-88
2022/01/04 12:46:52;;;;;;;0.40;0.40;;;5.30;99.90;;;;;;5079617;28;20031;-91
2022/01/04 12:49:22;;;;;;;3.38;0.52;;;5.30;99.90;;;;;;5079698;28;20130;-87
2022/01/04 12:51:54;;;;;;;0.38;0.38;;;5.40;99.90;;;;;;5067063;28;20040;-86
2022/01/04 12:54:22;;;;;;;3.85;0.75;;;5.70;99.90;;;;;;5076217;28;20067;-87
2022/01/04 12:57:02;;;;;;;1.10;0.40;;;5.40;99.90;;;;;;5079084;28;20028;-86
2022/01/04 12:59:37;;;;;;;0.20;0.20;;;5.30;99.90;;;;;;5079773;28;20032;-88
2022/01/04 13:02:32;;;;;;;2.15;0.85;;;5.60;99.90;;;;;;5065385;28;20508;-91
2022/01/04 13:05:00;;;;;;;0.70;0.57;;;5.40;99.90;;;;;;5063105;28;20059;-87
2022/01/04 13:07:37;;;;;;;1.55;0.60;;;5.40;99.90;;;;;;5075571;28;20558;-87
2022/01/04 13:10:14;;;;;;;2.15;0.77;;;5.40;99.90;;;;;;5058910;28;20079;-86
2022/01/04 13:12:41;;;;;;;5.88;1.30;;;5.40;99.90;;;;;;5058982;28;20074;-88
2022/01/04 13:15:15;;;;;;;25.23;0.80;;;5.40;99.90;;;;;;5078996;28;20110;-88